Time;durP1;ratioP1;P1;durP2;ratioP2;P2;SDS_P1;SDS_P2;PMS_P1;PMS_P2;Temp;Humidity;BMP_temperature;BMP_pressure;BME280_temperature;BME280_humidity;BME280_pressure;Samples;Min_cycle;Max_cycle;Signal;HPM_P1;HPM_P2
2023/10/16 00:01:58;;;;;;;8.70;2.30;;;;;;;5.71;87.14;100532.81;129945;1253;115112;-73
2023/10/16 00:05:08;;;;;;;4.80;1.60;;;;;;;5.79;87.00;100535.13;130260;1257;115505;-74
2023/10/16 00:08:16;;;;;;;6.80;1.90;;;;;;;5.87;87.21;100526.92;130282;1254;115246;-73
2023/10/16 00:11:23;;;;;;;5.10;1.90;;;;;;;5.95;86.98;100528.66;130344;1257;114760;-73
2023/10/16 00:14:27;;;;;;;5.60;1.60;;;;;;;6.02;86.94;100523.36;130399;1256;114702;-73
2023/10/16 00:17:31;;;;;;;6.30;1.80;;;;;;;6.07;86.70;100527.29;130514;1257;114714;-74
2023/10/16 00:20:33;;;;;;;5.30;1.60;;;;;;;6.12;86.58;100527.67;130438;1257;128686;-74
2023/10/16 00:23:38;;;;;;;5.80;1.50;;;;;;;6.18;86.35;100521.15;130248;1254;115194;-74
2023/10/16 00:26:45;;;;;;;7.40;1.60;;;;;;;6.23;86.40;100521.37;130442;1257;114715;-74
2023/10/16 00:29:48;;;;;;;4.40;1.80;;;;;;;6.28;86.39;100530.10;130672;1256;115334;-74
2023/10/16 00:32:50;;;;;;;5.00;1.60;;;;;;;6.33;86.11;100527.65;130363;1256;114701;-73
2023/10/16 00:35:53;;;;;;;5.40;1.60;;;;;;;6.37;86.17;100524.33;130253;1256;114720;-74
2023/10/16 00:38:55;;;;;;;8.00;2.00;;;;;;;6.42;85.89;100521.73;130295;1276;114837;-74
2023/10/16 00:41:57;;;;;;;7.90;1.90;;;;;;;6.46;85.95;100526.41;130353;1260;115176;-75
2023/10/16 00:45:00;;;;;;;5.90;1.50;;;;;;;6.49;85.80;100527.89;130611;1257;114722;-73
2023/10/16 00:48:06;;;;;;;4.90;1.70;;;;;;;6.54;85.71;100528.29;130301;1256;114706;-73
2023/10/16 00:51:09;;;;;;;5.40;1.50;;;;;;;6.57;85.75;100527.52;130243;1257;114917;-74
2023/10/16 00:54:18;;;;;;;6.20;1.10;;;;;;;6.59;85.50;100532.40;130248;1276;128196;-74
2023/10/16 00:57:27;;;;;;;4.00;1.40;;;;;;;6.61;85.50;100531.63;130372;1276;115243;-74
2023/10/16 01:00:31;;;;;;;6.40;1.50;;;;;;;6.63;85.39;100536.36;130300;1256;114721;-73
2023/10/16 01:03:34;;;;;;;7.90;1.60;;;;;;;6.66;85.42;100535.40;130268;1260;114837;-73
2023/10/16 01:06:36;;;;;;;7.20;1.50;;;;;;;6.69;85.22;100537.08;130408;1256;114743;-74
2023/10/16 01:09:42;;;;;;;7.70;1.70;;;;;;;6.72;85.41;100536.63;130252;1256;114746;-76
2023/10/16 01:12:54;;;;;;;4.00;1.30;;;;;;;6.72;85.06;100532.02;130116;1260;115295;-74
2023/10/16 01:15:56;;;;;;;7.60;2.00;;;;;;;6.73;84.94;100525.06;130391;1266;114899;-75
2023/10/16 01:19:06;;;;;;;13.20;1.90;;;;;;;6.73;84.70;100527.39;130337;1273;114837;-73
2023/10/16 01:22:11;;;;;;;5.10;1.70;;;;;;;6.73;84.76;100531.65;129954;1271;114919;-74
2023/10/16 01:25:14;;;;;;;7.20;1.90;;;;;;;6.73;84.68;100531.47;130374;1256;127674;-74
2023/10/16 01:28:17;;;;;;;5.40;1.30;;;;;;;6.72;84.49;100535.76;130315;1254;115234;-75
2023/10/16 01:31:19;;;;;;;8.50;1.80;;;;;;;6.70;84.43;100535.46;130324;1267;114727;-75
2023/10/16 01:34:22;;;;;;;9.50;2.00;;;;;;;6.67;84.09;100539.10;130554;1257;114710;-74
2023/10/16 01:37:25;;;;;;;6.30;1.80;;;;;;;6.62;84.03;100538.52;130200;1267;114736;-74
2023/10/16 01:40:28;;;;;;;3.70;1.30;;;;;;;6.58;84.11;100541.30;130328;1266;114827;-73
2023/10/16 01:43:34;;;;;;;4.10;1.50;;;;;;;6.52;83.87;100536.86;130386;1257;114764;-78
2023/10/16 01:46:36;;;;;;;5.40;1.50;;;;;;;6.44;83.95;100537.27;130704;1256;115187;-76
2023/10/16 01:49:38;;;;;;;7.40;1.80;;;;;;;6.37;83.74;100535.50;130717;1272;114783;-76
2023/10/16 01:52:40;;;;;;;5.30;1.40;;;;;;;6.29;83.73;100542.48;130446;1277;115340;-73
2023/10/16 01:55:51;;;;;;;5.10;2.10;;;;;;;6.20;83.80;100540.23;130362;1267;114711;-74
2023/10/16 01:58:53;;;;;;;6.20;1.40;;;;;;;6.12;83.84;100539.05;130271;1267;114733;-73
2023/10/16 02:01:55;;;;;;;5.10;1.70;;;;;;;6.03;83.73;100539.80;130293;1254;115199;-73
2023/10/16 02:04:58;;;;;;;4.50;1.40;;;;;;;5.95;83.85;100537.89;130308;1263;114761;-74
2023/10/16 02:08:00;;;;;;;7.70;1.50;;;;;;;5.86;83.81;100543.94;130310;1259;115334;-73
2023/10/16 02:11:04;;;;;;;9.60;2.80;;;;;;;5.77;83.79;100541.87;130323;1276;115109;-73
2023/10/16 02:14:05;;;;;;;5.80;1.80;;;;;;;5.69;83.87;100546.88;130342;1257;114812;-73
2023/10/16 02:17:21;;;;;;;6.30;1.60;;;;;;;5.59;83.93;100550.83;130344;1266;114745;-74
2023/10/16 02:20:26;;;;;;;10.80;2.20;;;;;;;5.51;84.01;100549.80;130269;1260;115386;-74
2023/10/16 02:23:31;;;;;;;7.80;2.20;;;;;;;5.44;84.23;100557.21;130336;1258;129094;-74
2023/10/16 02:26:44;;;;;;;6.60;1.70;;;;;;;5.39;84.31;100557.86;130212;1258;114728;-74
2023/10/16 02:29:52;;;;;;;5.00;1.50;;;;;;;5.36;84.39;100557.42;130355;1269;114748;-74
2023/10/16 02:33:10;;;;;;;4.90;1.70;;;;;;;5.30;84.43;100561.27;130271;1259;114739;-74
2023/10/16 02:36:13;;;;;;;6.30;1.70;;;;;;;5.26;84.42;100561.37;130255;1270;114774;-73
2023/10/16 02:39:34;;;;;;;4.00;1.10;;;;;;;5.22;84.58;100555.09;130265;1256;114725;-73
2023/10/16 02:42:40;;;;;;;8.60;1.60;;;;;;;5.19;84.71;100557.11;130250;1276;115226;-73
2023/10/16 02:45:51;;;;;;;;;;;;;;;5.16;84.92;100555.75;130350;1257;114700;-74
2023/10/16 02:48:54;;;;;;;8.30;1.80;;;;;;;5.17;85.11;100553.80;130354;1259;115537;-74
2023/10/16 02:51:56;;;;;;;8.20;1.80;;;;;;;5.18;85.08;100557.48;130354;1260;114811;-73
2023/10/16 02:55:00;;;;;;;2.90;1.40;;;;;;;5.21;85.14;100563.09;130289;1255;114731;-73
2023/10/16 02:58:04;;;;;;;10.00;1.80;;;;;;;5.24;85.47;100564.23;130413;1254;115119;-73
2023/10/16 03:01:12;;;;;;;2.70;1.00;;;;;;;5.29;85.64;100566.64;130508;1256;114718;-73
2023/10/16 03:04:16;;;;;;;4.80;1.70;;;;;;;5.33;85.47;100572.02;130419;1274;114696;-73
2023/10/16 03:07:20;;;;;;;5.50;1.50;;;;;;;5.36;85.51;100571.60;130365;1276;114661;-73
2023/10/16 03:10:22;;;;;;;5.10;1.80;;;;;;;5.37;85.37;100578.31;130326;1276;127892;-74
2023/10/16 03:13:25;;;;;;;7.20;2.10;;;;;;;5.38;85.51;100583.58;130471;1276;114656;-74
2023/10/16 03:16:27;;;;;;;4.90;1.60;;;;;;;5.40;85.55;100587.95;130473;1267;115393;-73
2023/10/16 03:19:29;;;;;;;3.30;1.40;;;;;;;5.42;85.50;100590.41;130482;1257;114777;-74
2023/10/16 03:22:31;;;;;;;5.00;1.60;;;;;;;5.43;85.56;100587.91;130337;1266;114707;-74
2023/10/16 03:28:44;;;;;;;9.60;2.50;;;;;;;5.43;85.28;100597.64;128023;1257;3331109;-74
2023/10/16 03:31:46;;;;;;;5.60;1.50;;;;;;;5.42;85.43;100600.14;130406;1260;115211;-73
2023/10/16 03:34:48;;;;;;;4.40;1.50;;;;;;;5.41;85.49;100602.80;130449;1267;115165;-74
2023/10/16 03:37:51;;;;;;;6.20;1.80;;;;;;;5.39;85.56;100598.61;130322;1255;114824;-75
2023/10/16 03:40:55;;;;;;;4.50;1.70;;;;;;;5.36;85.34;100599.59;130357;1261;114822;-73
2023/10/16 03:44:14;;;;;;;;;;;;;;;5.29;85.18;100599.02;130502;1266;114738;-74
2023/10/16 03:47:15;;;;;;;3.30;1.60;;;;;;;5.21;85.19;100597.26;130300;1258;128875;-74
2023/10/16 03:50:25;;;;;;;3.40;1.80;;;;;;;5.14;85.24;100596.70;130357;1276;114764;-73
2023/10/16 03:53:32;;;;;;;4.80;2.00;;;;;;;5.07;85.11;100597.20;130372;1272;114805;-74
2023/10/16 03:56:35;;;;;;;7.70;1.70;;;;;;;5.00;85.11;100595.93;130317;1254;114747;-73
2023/10/16 03:59:42;;;;;;;7.10;1.80;;;;;;;4.96;85.32;100596.75;130379;1259;114757;-73
2023/10/16 04:02:44;;;;;;;10.00;2.40;;;;;;;4.90;85.42;100593.15;130268;1261;128815;-75
2023/10/16 04:05:46;;;;;;;4.20;1.90;;;;;;;4.84;85.22;100594.15;130302;1277;114818;-74
2023/10/16 04:08:53;;;;;;;6.70;1.90;;;;;;;4.78;85.28;100593.42;130665;1258;114763;-74
2023/10/16 04:12:02;;;;;;;4.20;2.20;;;;;;;4.72;85.42;100595.48;130399;1276;115405;-73
2023/10/16 04:15:15;;;;;;;8.10;2.50;;;;;;;4.66;85.41;100600.73;130228;1265;114792;-72
2023/10/16 04:21:37;;;;;;;9.90;2.30;;;;;;;4.55;85.68;100598.64;130230;1266;127842;-72
2023/10/16 04:24:46;;;;;;;9.40;2.50;;;;;;;4.52;85.98;100604.54;130372;1259;115168;-71
2023/10/16 04:27:59;;;;;;;6.70;2.20;;;;;;;4.49;85.98;100604.77;130524;1259;114874;-74
2023/10/16 04:31:30;;;;;;;5.00;2.50;;;;;;;4.45;85.99;100611.05;130373;1258;114720;-73
2023/10/16 04:37:36;;;;;;;7.20;3.40;;;;;;;4.38;86.28;100612.77;130440;1254;128802;-73
2023/10/16 04:47:06;;;;;;;7.00;3.10;;;;;;;4.44;86.87;100614.96;130268;1260;114653;-74
2023/10/16 04:50:14;;;;;;;12.20;3.80;;;;;;;4.49;86.93;100614.85;130255;1258;115165;-73
2023/10/16 04:53:21;;;;;;;8.70;4.00;;;;;;;4.55;87.12;100611.73;130257;1257;128586;-73
2023/10/16 04:56:57;;;;;;;13.80;4.20;;;;;;;4.61;87.08;100607.02;130343;1257;115166;-74
2023/10/16 05:00:00;;;;;;;8.70;3.80;;;;;;;4.67;87.09;100606.73;130263;1257;114894;-73
2023/10/16 05:03:22;;;;;;;6.80;3.70;;;;;;;4.72;87.13;100599.00;130284;1258;114765;-74
2023/10/16 05:16:35;;;;;;;10.70;4.00;;;;;;;4.95;87.10;100602.25;130240;1258;114866;-74
2023/10/16 05:19:44;;;;;;;7.00;3.80;;;;;;;5.01;87.21;100603.90;130254;1260;114737;-73
2023/10/16 06:16:21;;;;;;;8.90;3.70;;;;;;;6.22;86.59;100629.23;129866;1272;127952;-74
2023/10/16 06:19:22;;;;;;;9.80;3.90;;;;;;;6.32;86.51;100628.43;130318;1258;114731;-73
2023/10/16 06:22:25;;;;;;;5.60;3.10;;;;;;;6.43;86.39;100635.79;130208;1254;114809;-73
2023/10/16 06:25:29;;;;;;;6.70;2.90;;;;;;;6.54;86.34;100631.39;130126;1257;115036;-73
2023/10/16 06:28:31;;;;;;;6.70;3.20;;;;;;;6.64;86.22;100632.70;130275;1257;114743;-74
2023/10/16 06:31:49;;;;;;;11.80;3.60;;;;;;;6.74;86.18;100635.27;130306;1254;115271;-74
2023/10/16 06:34:57;;;;;;;4.90;3.00;;;;;;;6.83;86.17;100640.70;130262;1257;129465;-74
2023/10/16 06:38:00;;;;;;;7.90;3.50;;;;;;;6.92;85.54;100642.56;130383;1254;115257;-73
2023/10/16 06:41:02;;;;;;;7.70;3.30;;;;;;;7.01;85.41;100649.04;130389;1254;114713;-75
2023/10/16 06:44:07;;;;;;;6.40;3.00;;;;;;;7.13;85.55;100649.96;130342;1254;115066;-73
2023/10/16 06:47:12;;;;;;;12.40;3.40;;;;;;;7.23;85.40;100654.83;130418;1254;114762;-74
2023/10/16 06:53:26;;;;;;;5.40;2.70;;;;;;;7.38;84.89;100657.73;130709;1276;115200;-74
2023/10/16 06:56:31;;;;;;;7.10;2.80;;;;;;;7.45;85.05;100656.64;130252;1276;114814;-74
2023/10/16 06:59:33;;;;;;;;;;;;;;;7.51;84.34;100655.02;130599;1260;114683;-74
2023/10/16 07:02:36;;;;;;;14.50;3.00;;;;;;;7.52;84.04;100653.94;130352;1257;114741;-74
2023/10/16 07:05:42;;;;;;;9.60;3.10;;;;;;;7.51;84.16;100658.59;130240;1257;114768;-74
2023/10/16 07:08:44;;;;;;;7.00;2.90;;;;;;;7.54;84.07;100660.27;130208;1276;115276;-74
2023/10/16 07:11:47;;;;;;;5.70;2.70;;;;;;;7.60;83.82;100662.36;130278;1276;114774;-74
2023/10/16 07:15:01;;;;;;;6.90;2.30;;;;;;;7.69;83.68;100668.70;130288;1257;114848;-74
2023/10/16 07:18:05;;;;;;;6.50;2.50;;;;;;;7.78;83.59;100670.02;130367;1258;114991;-73
2023/10/16 07:21:07;;;;;;;4.50;2.60;;;;;;;7.89;83.45;100671.09;130269;1276;127947;-73
2023/10/16 07:24:09;;;;;;;5.90;2.30;;;;;;;8.02;83.30;100666.58;130219;1273;115234;-73
2023/10/16 07:27:14;;;;;;;4.10;2.10;;;;;;;8.16;83.50;100666.11;130413;1257;115546;-72
2023/10/16 07:30:22;;;;;;;10.10;2.00;;;;;;;8.31;83.11;100664.02;130307;1257;114725;-77
2023/10/16 07:33:24;;;;;;;5.90;2.10;;;;;;;8.46;82.55;100665.45;130428;1257;114746;-73
2023/10/16 07:36:26;;;;;;;7.90;2.30;;;;;;;8.61;82.40;100664.60;130450;1253;115106;-73
2023/10/16 07:39:28;;;;;;;8.40;2.10;;;;;;;8.73;82.26;100669.86;130526;1254;114778;-73
2023/10/16 07:42:30;;;;;;;7.10;2.50;;;;;;;8.90;82.40;100671.92;130320;1257;128078;-73
2023/10/16 07:45:32;;;;;;;11.50;2.20;;;;;;;9.02;81.56;100676.10;130401;1258;115287;-73
2023/10/16 07:48:34;;;;;;;7.30;1.90;;;;;;;9.07;81.37;100676.44;130494;1254;114737;-74
2023/10/16 07:51:36;;;;;;;5.20;2.30;;;;;;;9.13;80.96;100679.44;130528;1254;114784;-73
2023/10/16 07:54:41;;;;;;;9.10;2.50;;;;;;;9.19;80.85;100674.27;130411;1256;115519;-72
2023/10/16 07:57:47;;;;;;;;;;;;;;;9.26;80.87;100671.11;130291;1266;114834;-73
2023/10/16 08:01:16;;;;;;;11.30;2.50;;;;;;;9.33;80.45;100672.65;130275;1266;128892;-73
2023/10/16 08:04:29;;;;;;;9.00;2.90;;;;;;;9.39;80.39;100671.54;130272;1254;116454;-73
2023/10/16 08:07:46;;;;;;;8.00;2.30;;;;;;;9.44;79.93;100671.52;129946;1262;114832;-74
2023/10/16 08:10:48;;;;;;;7.40;2.50;;;;;;;9.45;79.82;100673.98;130287;1254;114805;-71
2023/10/16 08:13:53;;;;;;;9.30;2.20;;;;;;;9.47;79.47;100675.13;130369;1254;115209;-69
2023/10/16 08:17:04;;;;;;;;;;;;;;;9.55;79.46;100677.85;130378;1254;129746;-70
2023/10/16 08:20:08;;;;;;;8.90;2.60;;;;;;;9.58;78.99;100680.41;129924;1263;115317;-71
2023/10/16 08:23:13;;;;;;;12.20;2.20;;;;;;;9.64;78.79;100681.23;130456;1256;114876;-71
2023/10/16 08:26:19;;;;;;;;;;;;;;;9.72;78.66;100679.88;130521;1256;114685;-74
2023/10/16 08:29:27;;;;;;;4.40;2.40;;;;;;;9.80;78.48;100677.78;130550;1253;114767;-72
2023/10/16 08:35:51;;;;;;;7.70;2.30;;;;;;;10.02;78.14;100675.80;130317;1252;115222;-64
2023/10/16 08:38:54;;;;;;;8.30;2.30;;;;;;;10.21;78.31;100678.77;130432;1256;114798;-64
2023/10/16 08:42:10;;;;;;;5.10;2.00;;;;;;;10.40;78.29;100673.72;130345;1256;114836;-63
2023/10/16 08:45:23;;;;;;;6.90;2.50;;;;;;;10.68;77.90;100677.14;129944;1261;115139;-66
2023/10/16 08:48:29;;;;;;;6.20;2.10;;;;;;;10.86;77.46;100676.90;129898;1262;127932;-70
2023/10/16 08:51:31;;;;;;;8.00;3.00;;;;;;;10.96;76.68;100677.87;129903;1262;115180;-65
2023/10/16 08:55:17;;;;;;;4.70;1.70;;;;;;;10.99;76.33;100676.18;130254;1259;114778;-65
2023/10/16 08:58:04;;;;;;;8.70;2.30;;;;;;;11.05;75.65;100679.07;129972;1265;116453;-64
2023/10/16 09:01:11;;;;;;;7.50;2.20;;;;;;;11.20;75.92;100681.09;130243;1270;114728;-63
2023/10/16 09:04:14;;;;;;;5.40;2.10;;;;;;;11.43;75.71;100679.13;130084;1260;127875;-64
2023/10/16 09:07:19;;;;;;;10.60;3.80;;;;;;;11.63;75.31;100680.87;130285;1270;114763;-63
2023/10/16 09:10:22;;;;;;;6.80;2.20;;;;;;;11.72;74.88;100680.98;130311;1253;114753;-62
2023/10/16 09:13:26;;;;;;;11.60;2.20;;;;;;;11.76;74.42;100677.23;130452;1257;114796;-64
2023/10/16 09:16:31;;;;;;;;;;;;;;;11.81;73.93;100676.81;129952;1257;114887;-64
2023/10/16 09:19:48;;;;;;;7.80;2.10;;;;;;;11.83;73.80;100679.38;129739;1276;128023;-64
2023/10/16 09:22:50;;;;;;;5.20;2.00;;;;;;;11.89;73.50;100681.61;130275;1276;115209;-65
2023/10/16 09:25:55;;;;;;;14.30;3.00;;;;;;;11.96;73.10;100678.77;130317;1254;115420;-71
2023/10/16 09:29:14;;;;;;;;;;;;;;;11.99;72.97;100684.20;130295;1257;114705;-64
2023/10/16 09:32:20;;;;;;;11.00;2.90;;;;;;;11.99;72.79;100692.75;130015;1260;114908;-64
2023/10/16 09:35:30;;;;;;;5.00;1.70;;;;;;;11.98;72.41;100694.96;130308;1263;127660;-64
2023/10/16 09:38:35;;;;;;;8.30;2.10;;;;;;;11.95;71.55;100694.71;130230;1262;115262;-64
2023/10/16 09:41:42;;;;;;;9.20;1.90;;;;;;;12.01;71.49;100699.34;130369;1256;114784;-65
2023/10/16 09:44:45;;;;;;;5.40;1.60;;;;;;;12.07;71.55;100699.57;130286;1257;115419;-66
2023/10/16 09:47:48;;;;;;;9.30;2.20;;;;;;;12.04;70.94;100695.39;130020;1257;116369;-65
2023/10/16 09:50:52;;;;;;;7.90;2.10;;;;;;;11.97;70.89;100691.05;130251;1255;114795;-65
2023/10/16 09:53:54;;;;;;;7.20;2.00;;;;;;;11.89;70.57;100693.59;130258;1257;114775;-63
2023/10/16 09:56:59;;;;;;;4.90;1.80;;;;;;;11.89;70.77;100688.40;130324;1256;117096;-64
2023/10/16 10:00:46;;;;;;;6.50;1.80;;;;;;;11.85;70.59;100694.84;130114;1257;114806;-67
2023/10/16 10:03:27;;;;;;;7.80;2.40;;;;;;;11.77;70.48;100691.65;129947;1262;114819;-65
2023/10/16 10:06:35;;;;;;;4.90;1.70;;;;;;;11.71;70.24;100696.94;130216;1254;115350;-65
2023/10/16 10:09:44;;;;;;;5.40;1.60;;;;;;;11.73;70.51;100695.98;130510;1254;115205;-64
2023/10/16 10:12:47;;;;;;;11.10;2.00;;;;;;;11.82;70.14;100691.23;130226;1261;114857;-67
2023/10/16 10:15:52;;;;;;;7.70;2.30;;;;;;;11.98;70.21;100691.00;130375;1257;115327;-66
2023/10/16 10:19:01;;;;;;;11.10;2.00;;;;;;;12.17;69.94;100691.91;130134;1276;114878;-67
2023/10/16 10:22:17;;;;;;;6.80;1.80;;;;;;;12.29;69.53;100689.33;129948;1263;128039;-65
2023/10/16 10:25:35;;;;;;;9.30;2.20;;;;;;;12.41;69.46;100687.80;130037;1257;115190;-65
2023/10/16 10:28:40;;;;;;;7.90;2.90;;;;;;;12.49;69.06;100686.54;130166;1276;114764;-73
2023/10/16 10:31:45;;;;;;;6.60;2.50;;;;;;;12.49;68.97;100687.61;130093;1262;115016;-66
2023/10/16 10:34:47;;;;;;;7.40;2.10;;;;;;;12.41;68.66;100686.74;130456;1269;114659;-69
2023/10/16 10:37:51;;;;;;;9.70;2.40;;;;;;;12.40;68.70;100680.73;130363;1254;114776;-65
2023/10/16 10:41:06;;;;;;;13.40;5.90;;;;;;;12.44;68.60;100674.59;130169;1254;114961;-65
2023/10/16 10:44:14;;;;;;;11.10;5.30;;;;;;;12.47;67.93;100668.71;130312;1254;114826;-65
2023/10/16 10:47:32;;;;;;;8.30;2.40;;;;;;;12.40;68.12;100666.92;130052;1262;114796;-68
2023/10/16 10:50:38;;;;;;;21.10;4.00;;;;;;;12.29;67.72;100668.55;130141;1254;114863;-64
2023/10/16 10:53:53;;;;;;;8.80;2.80;;;;;;;12.22;67.42;100673.94;130421;1256;127802;-67
2023/10/16 10:56:59;;;;;;;10.60;2.50;;;;;;;12.21;67.06;100676.13;129830;1268;114783;-65
2023/10/16 11:03:22;;;;;;;9.40;4.20;;;;;;;12.14;67.12;100675.58;130239;1258;114788;-65
2023/10/16 11:09:46;;;;;;;5.70;2.10;;;;;;;12.26;67.03;100664.96;129988;1262;127876;-61
2023/10/16 11:12:48;;;;;;;10.40;3.40;;;;;;;12.37;66.89;100659.20;129948;1258;114802;-65
2023/10/16 11:15:54;;;;;;;12.00;2.90;;;;;;;12.45;66.46;100653.42;130297;1259;114789;-68
2023/10/16 11:18:58;;;;;;;6.90;2.30;;;;;;;12.54;66.42;100655.63;130385;1268;115351;-67
2023/10/16 11:22:00;;;;;;;5.70;3.00;;;;;;;12.62;66.31;100653.45;130042;1276;114919;-68
2023/10/16 11:25:02;;;;;;;5.90;2.00;;;;;;;12.71;66.27;100649.39;130291;1254;114758;-76
2023/10/16 11:28:08;;;;;;;8.90;1.80;;;;;;;12.81;66.38;100646.16;130411;1254;114690;-78
2023/10/16 11:31:10;;;;;;;5.40;1.90;;;;;;;12.86;65.79;100643.58;130648;1253;128895;-79
2023/10/16 11:34:21;;;;;;;4.20;2.00;;;;;;;12.86;65.60;100643.73;130325;1258;115082;-76
2023/10/16 11:37:25;;;;;;;9.30;3.40;;;;;;;12.84;64.97;100645.80;130766;1257;114723;-81
2023/10/16 11:40:39;;;;;;;5.90;2.40;;;;;;;12.81;64.76;100649.23;130441;1254;115186;-79
2023/10/16 11:43:54;;;;;;;6.00;2.00;;;;;;;12.83;65.00;100649.45;130397;1270;114843;-82
2023/10/16 11:47:00;;;;;;;5.90;2.60;;;;;;;12.88;65.18;100645.41;130487;1255;128790;-80
2023/10/16 11:50:17;;;;;;;6.20;1.90;;;;;;;12.97;65.11;100639.25;130456;1259;114809;-79
2023/10/16 11:53:23;;;;;;;4.30;1.70;;;;;;;13.02;64.78;100638.24;130440;1259;114708;-80
2023/10/16 11:56:25;;;;;;;7.60;1.70;;;;;;;12.99;64.62;100639.48;130404;1254;114808;-81
2023/10/16 11:59:28;;;;;;;6.50;2.00;;;;;;;12.96;64.76;100630.84;130384;1254;114785;-81
2023/10/16 12:02:30;;;;;;;6.40;1.80;;;;;;;12.87;64.58;100627.36;130368;1256;114716;-80
2023/10/16 12:05:35;;;;;;;6.10;1.50;;;;;;;12.74;64.41;100627.36;130519;1256;114728;-77
2023/10/16 12:08:37;;;;;;;2.80;1.60;;;;;;;12.63;64.25;100628.85;130390;1256;114818;-77
2023/10/16 12:11:43;;;;;;;7.20;1.50;;;;;;;12.55;64.67;100628.20;130511;1254;114801;-76
2023/10/16 12:14:47;;;;;;;5.90;1.70;;;;;;;12.44;64.27;100637.67;130002;1257;114872;-79
2023/10/16 12:17:50;;;;;;;;;;;;;;;12.31;64.56;100640.86;130472;1256;114723;-76
2023/10/16 12:20:53;;;;;;;6.80;3.10;;;;;;;12.27;65.46;100648.95;130551;1257;114831;-81
2023/10/16 12:23:57;;;;;;;7.70;2.80;;;;;;;12.19;65.63;100654.90;130749;1256;114727;-79
2023/10/16 12:27:01;;;;;;;4.80;2.40;;;;;;;12.03;66.01;100668.06;130886;1256;114795;-79
2023/10/16 12:30:05;;;;;;;4.60;1.80;;;;;;;11.90;66.54;100668.66;130914;1256;115146;-81
2023/10/16 12:33:07;;;;;;;5.80;1.80;;;;;;;11.75;67.07;100662.77;130887;1256;114786;-75
2023/10/16 12:36:10;;;;;;;6.40;2.10;;;;;;;11.63;67.52;100657.10;130772;1256;115413;-80
2023/10/16 12:39:25;;;;;;;8.20;1.70;;;;;;;11.58;67.61;100648.75;130821;1252;114856;-79
2023/10/16 12:42:27;;;;;;;4.20;1.30;;;;;;;11.53;67.64;100650.38;130773;1259;114749;-79
2023/10/16 12:45:29;;;;;;;3.10;1.40;;;;;;;11.48;67.97;100647.80;130798;1256;114749;-79
2023/10/16 12:48:31;;;;;;;5.60;1.40;;;;;;;11.40;68.21;100645.67;130885;1254;114776;-80
2023/10/16 12:51:34;;;;;;;6.00;1.30;;;;;;;11.33;68.45;100648.64;130608;1254;114737;-80
2023/10/16 12:54:43;;;;;;;3.60;1.20;;;;;;;11.29;68.46;100647.60;130304;1254;114750;-81
2023/10/16 12:57:48;;;;;;;5.40;1.40;;;;;;;11.23;68.53;100648.79;130454;1256;114740;-76
2023/10/16 13:00:51;;;;;;;4.50;1.30;;;;;;;11.16;68.44;100648.73;130216;1254;114786;-72
2023/10/16 13:03:59;;;;;;;5.10;1.40;;;;;;;11.12;68.19;100650.20;130366;1257;114690;-75
2023/10/16 13:07:02;;;;;;;6.70;1.50;;;;;;;11.07;68.62;100643.09;130425;1256;114786;-80
2023/10/16 13:10:08;;;;;;;5.70;1.70;;;;;;;11.04;68.40;100645.73;130360;1254;114783;-78
2023/10/16 13:13:10;;;;;;;5.40;1.70;;;;;;;11.02;68.47;100643.85;130388;1256;115212;-77
2023/10/16 13:16:12;;;;;;;3.70;1.10;;;;;;;11.03;68.16;100645.41;130365;1256;114723;-82
2023/10/16 13:19:14;;;;;;;4.00;1.40;;;;;;;11.04;68.14;100638.22;130248;1256;114800;-79
2023/10/16 13:22:17;;;;;;;6.90;1.20;;;;;;;11.06;68.17;100641.33;130510;1272;114660;-77
2023/10/16 13:25:22;;;;;;;5.00;1.50;;;;;;;11.10;68.23;100638.65;130433;1256;115222;-79
2023/10/16 13:28:24;;;;;;;4.40;1.10;;;;;;;11.13;67.86;100641.04;130344;1276;127765;-79
2023/10/16 13:31:26;;;;;;;9.30;1.10;;;;;;;11.07;67.88;100646.09;130145;1254;114760;-77
2023/10/16 13:34:28;;;;;;;5.10;1.50;;;;;;;11.02;67.16;100643.11;130400;1256;114912;-70
2023/10/16 13:37:30;;;;;;;3.50;1.30;;;;;;;11.00;67.24;100641.42;130457;1254;114808;-73
2023/10/16 13:40:32;;;;;;;3.20;1.30;;;;;;;11.03;67.35;100643.80;130227;1257;114858;-75
2023/10/16 13:43:35;;;;;;;7.10;1.20;;;;;;;11.03;67.30;100645.38;130208;1277;115571;-74
2023/10/16 13:46:37;;;;;;;0.70;0.70;;;;;;;11.03;66.83;100645.95;130282;1254;115214;-81
2023/10/16 13:49:40;;;;;;;5.20;1.10;;;;;;;10.98;66.53;100646.14;130172;1255;131052;-78
2023/10/16 13:52:46;;;;;;;2.10;0.80;;;;;;;10.93;66.61;100653.15;130237;1257;114719;-77
2023/10/16 13:55:52;;;;;;;1.60;0.80;;;;;;;10.94;66.82;100657.26;130372;1254;114699;-83
2023/10/16 13:58:58;;;;;;;3.10;1.20;;;;;;;10.97;67.10;100657.85;130372;1256;114766;-74
2023/10/16 14:02:01;;;;;;;4.10;1.30;;;;;;;10.97;67.21;100655.16;130367;1260;114990;-77
2023/10/16 14:05:07;;;;;;;2.90;1.50;;;;;;;10.93;66.99;100656.56;130255;1254;114810;-80
2023/10/16 14:08:14;;;;;;;3.10;1.60;;;;;;;10.93;67.65;100656.91;130279;1254;115154;-80
2023/10/16 14:11:17;;;;;;;3.80;1.50;;;;;;;10.94;67.60;100659.39;130352;1256;114801;-79
2023/10/16 14:14:21;;;;;;;3.10;1.40;;;;;;;10.87;67.40;100665.61;130304;1254;114767;-71
2023/10/16 14:17:24;;;;;;;2.40;1.60;;;;;;;10.75;68.36;100671.48;130385;1257;114745;-78
2023/10/16 14:20:35;;;;;;;4.10;1.30;;;;;;;10.62;68.53;100663.48;130286;1256;114753;-81
2023/10/16 14:23:42;;;;;;;2.80;1.40;;;;;;;10.50;68.83;100650.08;130356;1254;114755;-79
2023/10/16 14:26:49;;;;;;;3.40;1.40;;;;;;;10.39;69.05;100649.45;130191;1258;116637;-78
2023/10/16 14:29:58;;;;;;;1.80;1.00;;;;;;;10.33;69.70;100648.09;130133;1262;114840;-78
2023/10/16 14:33:01;;;;;;;2.90;1.30;;;;;;;10.26;70.34;100645.89;130527;1254;114761;-74
2023/10/16 14:36:06;;;;;;;5.10;1.10;;;;;;;10.15;70.10;100643.29;130437;1256;114713;-77
2023/10/16 14:39:08;;;;;;;2.40;1.10;;;;;;;10.06;70.45;100642.09;130557;1256;114734;-77
2023/10/16 14:42:11;;;;;;;2.50;1.30;;;;;;;9.99;70.74;100644.36;130174;1260;115144;-76
2023/10/16 14:45:15;;;;;;;4.60;1.50;;;;;;;9.94;71.12;100639.75;130327;1258;114855;-78
2023/10/16 14:48:18;;;;;;;3.60;1.60;;;;;;;9.86;70.90;100644.48;130574;1256;115072;-78
2023/10/16 14:51:22;;;;;;;5.70;1.50;;;;;;;9.78;71.02;100645.75;130828;1257;114744;-80
2023/10/16 14:54:25;;;;;;;5.50;1.90;;;;;;;9.71;71.58;100646.17;131003;1256;114930;-78
2023/10/16 14:57:27;;;;;;;5.70;2.10;;;;;;;9.67;71.67;100650.10;130924;1256;115617;-78
2023/10/16 15:00:37;;;;;;;5.50;2.60;;;;;;;9.56;71.62;100651.94;130805;1259;114727;-72
2023/10/16 15:03:39;;;;;;;5.80;2.20;;;;;;;9.44;71.87;100658.11;130800;1254;114748;-78
2023/10/16 15:06:42;;;;;;;11.50;6.90;;;;;;;9.35;72.22;100659.39;130864;1254;114808;-80
2023/10/16 15:09:44;;;;;;;11.00;5.80;;;;;;;9.23;71.93;100658.05;130866;1254;115405;-80
2023/10/16 15:12:47;;;;;;;8.00;3.50;;;;;;;9.16;72.29;100659.05;130582;1256;115243;-78
2023/10/16 15:15:51;;;;;;;8.90;3.50;;;;;;;9.09;72.62;100663.73;130766;1256;114939;-79
2023/10/16 15:18:53;;;;;;;16.40;6.00;;;;;;;9.02;73.00;100671.30;130184;1256;114853;-72
2023/10/16 15:21:55;;;;;;;12.80;5.80;;;;;;;8.97;73.33;100671.30;130712;1254;114738;-78
2023/10/16 15:24:57;;;;;;;21.20;8.30;;;;;;;8.93;73.55;100673.77;130617;1254;115443;-79
2023/10/16 15:27:59;;;;;;;19.00;7.50;;;;;;;8.89;73.77;100678.73;127908;1254;3700957;-78
2023/10/16 15:31:01;;;;;;;17.80;6.00;;;;;;;8.86;73.81;100684.73;130497;1256;114723;-81
2023/10/16 15:34:08;;;;;;;17.00;4.80;;;;;;;8.82;74.22;100687.90;130405;1254;114975;-80
2023/10/16 15:37:10;;;;;;;10.80;5.60;;;;;;;8.77;74.47;100693.58;130445;1256;114719;-70
2023/10/16 15:40:17;;;;;;;13.90;4.90;;;;;;;8.73;74.55;100692.32;130643;1256;115404;-81
2023/10/16 15:43:20;;;;;;;36.70;17.50;;;;;;;8.67;74.48;100699.09;130322;1267;114772;-81